»·PEaware :: N66DR KAVX-KSAN

N66DR :: KAVX-KSAN

FLIGHT INFORMATION

Flight Status: Arrived
Operator: Privately registered:
United States
More flights under this callsign
Pilot: Derek R. (15925)
Aircraft: BEECH AIRCRAFT T-6A TEXAN
(TEX2)
More flights by this aircraft type
Origin: KAVX Catalina
United States
Destination: KSAN San Diego Intl-Lindbergh
United States
More flights between these airports :: More routes between these airports
Route: +SXC V208 LAX118R CARDI MZB320R MZB
File this flight plan on PilotEdge
Remarks: TEC ROUTE CSTN54. REQUEST VECTORS ILS 27 KSAN
Altitude:
(Current/Filed)
9,000ft
Speed:
(Current/Filed)
300kts
Departed: 07-Jan-18 01:10 PM
Arrived: 07-Jan-18 02:03 PM
Distance/Time
Traveled:
74nm/0:53
Distance/Time
To Go:
Arrived

Flight Plot

Page will automatically refresh every two minutes.


Map Options




Map Legend


Flown Route
Filed Route
Departure Airport
Arrival Airport
Navaid (VOR, NDB)
Fix

Horizontal Profiles

Position Reports

Time Latitude Longitude Heading Altitude Ground
Speed
07-Jan-18 13:05 33.403306 -118.415946 43 1607ft 0kts
07-Jan-18 13:06 33.403697 -118.415254 39 1607ft 0kts
07-Jan-18 13:07 33.403697 -118.415254 39 1607ft 0kts
07-Jan-18 13:08 33.403697 -118.415254 39 1607ft 0kts
07-Jan-18 13:09 33.406963 -118.411733 56 1607ft 0kts
07-Jan-18 13:10 33.406948 -118.411760 57 1607ft 0kts
07-Jan-18 13:11 33.406948 -118.411760 57 1607ft 0kts
07-Jan-18 13:12 33.406948 -118.411760 57 1607ft 0kts
07-Jan-18 13:13 33.406948 -118.411760 57 1607ft 0kts
07-Jan-18 13:14 33.406948 -118.411760 57 1607ft 0kts
07-Jan-18 13:15 33.407499 -118.411987 246 1607ft 39kts
07-Jan-18 13:16 33.389687 -118.444448 231 3283ft 145kts
07-Jan-18 13:17 33.371386 -118.419833 76 4247ft 202kts
07-Jan-18 13:18 33.368600 -118.357964 100 6133ft 195kts
07-Jan-18 13:19 33.353952 -118.302390 113 8498ft 171kts
07-Jan-18 13:20 33.342729 -118.241352 86 9184ft 229kts
07-Jan-18 13:21 33.345091 -118.161491 86 9088ft 262kts
07-Jan-18 13:22 33.347539 -118.085498 86 9078ft 268kts
07-Jan-18 13:23 33.349813 -118.011725 91 9068ft 271kts
07-Jan-18 13:24 33.333982 -117.927515 102 9075ft 279kts
07-Jan-18 13:25 33.319325 -117.843991 100 9059ft 226kts
07-Jan-18 13:26 33.309402 -117.787238 100 9061ft 178kts
07-Jan-18 13:27 33.302987 -117.751207 100 9072ft 187kts
07-Jan-18 13:28 33.296625 -117.709677 93 9071ft 198kts
07-Jan-18 13:29 33.292624 -117.658319 93 9075ft 249kts
07-Jan-18 13:30 33.277532 -117.572550 124 9070ft 280kts
07-Jan-18 13:31 33.229419 -117.496629 126 9060ft 294kts
07-Jan-18 13:32 33.176846 -117.421036 129 9054ft 300kts
07-Jan-18 13:33 33.112665 -117.359017 158 9053ft 303kts
07-Jan-18 13:34 33.033574 -117.324059 159 9049ft 304kts
07-Jan-18 13:35 32.957911 -117.290698 159 8866ft 310kts
07-Jan-18 13:36 32.882524 -117.260499 165 8238ft 318kts
07-Jan-18 13:37 32.806439 -117.232507 135 7517ft 261kts
07-Jan-18 13:38 32.788388 -117.161293 101 7031ft 229kts
07-Jan-18 13:39 32.776207 -117.093250 101 6629ft 213kts
07-Jan-18 13:40 32.764014 -117.025639 100 6123ft 206kts
07-Jan-18 13:41 32.752074 -116.959844 100 5619ft 202kts
07-Jan-18 13:42 32.740212 -116.893632 100 5128ft 211kts
07-Jan-18 13:43 32.706135 -116.860306 191 5016ft 149kts
07-Jan-18 13:44 32.660241 -116.877499 235 5031ft 204kts
07-Jan-18 13:45 32.672626 -116.945364 291 4613ft 235kts
07-Jan-18 13:46 32.693324 -117.018754 280 3643ft 245kts
07-Jan-18 13:47 32.704098 -117.090217 280 2235ft 261kts
07-Jan-18 13:48 32.713403 -117.148677 280 1651ft 237kts
07-Jan-18 13:49 32.723811 -117.193980 316 1425ft 232kts
07-Jan-18 13:50 32.756607 -117.202273 339 4318ft 96kts
07-Jan-18 13:51 32.784175 -117.250261 291 2424ft 252kts
07-Jan-18 13:52 32.831225 -117.308350 5 784ft 298kts
07-Jan-18 13:53 32.854914 -117.242471 147 885ft 194kts
07-Jan-18 13:54 32.832701 -117.196539 100 3249ft 186kts
07-Jan-18 13:55 32.823988 -117.145912 100 4893ft 215kts
07-Jan-18 13:56 32.809978 -117.065023 100 5019ft 270kts
07-Jan-18 13:57 32.794761 -116.975950 100 5013ft 265kts
07-Jan-18 13:58 32.781601 -116.899771 100 5002ft 188kts
07-Jan-18 13:59 32.768920 -116.842432 132 5015ft 187kts
07-Jan-18 14:00 32.717127 -116.843239 189 5014ft 198kts
07-Jan-18 14:01 32.677302 -116.877191 251 5012ft 191kts
07-Jan-18 14:02 32.672033 -116.942201 279 4064ft 219kts
07-Jan-18 14:03 32.677179 -116.988800 279 3555ft 103kts
07-Jan-18 14:04 32.686289 -117.015543 287 2816ft 97kts
07-Jan-18 14:05 32.695600 -117.048834 296 2080ft 171kts
07-Jan-18 14:06 32.708942 -117.093084 284 1824ft 175kts
07-Jan-18 14:07 32.719248 -117.132879 286 734ft 119kts
07-Jan-18 14:08 32.726390 -117.160857 288 270ft 99kts
07-Jan-18 14:09 32.732468 -117.185150 278 22ft 29kts
07-Jan-18 14:10 32.733935 -117.188044 3 22ft 0kts
07-Jan-18 14:11 32.734104 -117.188062 349 22ft 6kts
07-Jan-18 14:12 32.734993 -117.188489 285 22ft 0kts
07-Jan-18 14:13 32.734993 -117.188489 285 22ft 0kts

Navigation Log

Ident Type
1. KAVX Airport
2. SXC Navaid
3. CARDI Fix
4. MZB Navaid
5. KSAN Airport